sensor_id;sensor_type;location;lat;lon;timestamp;P1;durP1;ratioP1;P2;durP2;ratioP2
65459;SDS011;52058;49.822;6.754;2022-07-10T00:00:30;2.95;;;1.75;;
65459;SDS011;52058;49.822;6.754;2022-07-10T00:02:56;2.80;;;1.88;;
65459;SDS011;52058;49.822;6.754;2022-07-10T00:05:22;3.67;;;1.90;;
65459;SDS011;52058;49.822;6.754;2022-07-10T00:07:49;4.55;;;1.70;;
65459;SDS011;52058;49.822;6.754;2022-07-10T00:10:15;3.97;;;1.70;;
65459;SDS011;52058;49.822;6.754;2022-07-10T00:12:42;4.22;;;2.05;;
65459;SDS011;52058;49.822;6.754;2022-07-10T00:15:07;4.82;;;2.00;;
65459;SDS011;52058;49.822;6.754;2022-07-10T00:17:33;3.30;;;1.77;;
65459;SDS011;52058;49.822;6.754;2022-07-10T00:20:00;4.20;;;2.08;;
65459;SDS011;52058;49.822;6.754;2022-07-10T00:22:26;4.45;;;2.00;;
65459;SDS011;52058;49.822;6.754;2022-07-10T00:24:51;3.78;;;1.83;;
65459;SDS011;52058;49.822;6.754;2022-07-10T00:27:17;3.78;;;1.80;;
65459;SDS011;52058;49.822;6.754;2022-07-10T00:29:43;3.90;;;2.03;;
65459;SDS011;52058;49.822;6.754;2022-07-10T00:32:09;4.55;;;1.77;;
65459;SDS011;52058;49.822;6.754;2022-07-10T00:34:34;4.55;;;2.03;;
65459;SDS011;52058;49.822;6.754;2022-07-10T00:37:00;4.30;;;1.75;;
65459;SDS011;52058;49.822;6.754;2022-07-10T00:39:25;2.90;;;1.70;;
65459;SDS011;52058;49.822;6.754;2022-07-10T00:41:51;3.70;;;1.80;;
65459;SDS011;52058;49.822;6.754;2022-07-10T00:44:16;2.08;;;1.70;;
65459;SDS011;52058;49.822;6.754;2022-07-10T00:46:42;2.53;;;1.70;;
65459;SDS011;52058;49.822;6.754;2022-07-10T00:49:07;4.57;;;2.00;;
65459;SDS011;52058;49.822;6.754;2022-07-10T00:51:32;2.03;;;1.58;;
65459;SDS011;52058;49.822;6.754;2022-07-10T00:53:58;3.38;;;1.52;;
65459;SDS011;52058;49.822;6.754;2022-07-10T00:56:25;3.10;;;1.85;;
65459;SDS011;52058;49.822;6.754;2022-07-10T00:58:52;3.17;;;1.70;;
65459;SDS011;52058;49.822;6.754;2022-07-10T01:01:18;5.57;;;1.80;;
65459;SDS011;52058;49.822;6.754;2022-07-10T01:03:44;4.00;;;1.77;;
65459;SDS011;52058;49.822;6.754;2022-07-10T01:06:10;3.97;;;1.83;;
65459;SDS011;52058;49.822;6.754;2022-07-10T01:08:36;2.92;;;1.52;;
65459;SDS011;52058;49.822;6.754;2022-07-10T01:11:02;5.18;;;1.70;;
65459;SDS011;52058;49.822;6.754;2022-07-10T01:13:27;4.07;;;1.70;;
65459;SDS011;52058;49.822;6.754;2022-07-10T01:15:53;2.85;;;1.73;;
65459;SDS011;52058;49.822;6.754;2022-07-10T01:18:19;5.85;;;1.83;;
65459;SDS011;52058;49.822;6.754;2022-07-10T01:20:44;2.13;;;1.50;;
65459;SDS011;52058;49.822;6.754;2022-07-10T01:23:09;5.13;;;2.00;;
65459;SDS011;52058;49.822;6.754;2022-07-10T01:25:35;2.78;;;1.48;;
65459;SDS011;52058;49.822;6.754;2022-07-10T01:28:00;3.88;;;1.65;;
65459;SDS011;52058;49.822;6.754;2022-07-10T01:30:26;6.20;;;1.50;;
65459;SDS011;52058;49.822;6.754;2022-07-10T01:32:51;5.00;;;1.58;;
65459;SDS011;52058;49.822;6.754;2022-07-10T01:35:17;6.03;;;1.60;;
65459;SDS011;52058;49.822;6.754;2022-07-10T01:37:43;3.15;;;1.60;;
65459;SDS011;52058;49.822;6.754;2022-07-10T01:40:08;2.47;;;1.58;;
65459;SDS011;52058;49.822;6.754;2022-07-10T01:42:34;2.45;;;1.20;;
65459;SDS011;52058;49.822;6.754;2022-07-10T01:45:00;4.45;;;1.60;;
65459;SDS011;52058;49.822;6.754;2022-07-10T01:47:25;3.40;;;1.40;;
65459;SDS011;52058;49.822;6.754;2022-07-10T01:49:52;2.72;;;1.52;;
65459;SDS011;52058;49.822;6.754;2022-07-10T01:52:18;2.58;;;1.27;;
65459;SDS011;52058;49.822;6.754;2022-07-10T01:54:47;2.95;;;1.42;;
65459;SDS011;52058;49.822;6.754;2022-07-10T01:57:13;4.47;;;1.80;;
65459;SDS011;52058;49.822;6.754;2022-07-10T01:59:39;5.13;;;1.90;;
65459;SDS011;52058;49.822;6.754;2022-07-10T02:02:05;3.33;;;2.10;;
65459;SDS011;52058;49.822;6.754;2022-07-10T02:04:31;3.80;;;1.92;;
65459;SDS011;52058;49.822;6.754;2022-07-10T02:07:05;3.90;;;2.00;;
65459;SDS011;52058;49.822;6.754;2022-07-10T02:09:31;6.05;;;1.80;;
65459;SDS011;52058;49.822;6.754;2022-07-10T02:11:56;2.60;;;1.90;;
65459;SDS011;52058;49.822;6.754;2022-07-10T02:14:22;4.15;;;1.75;;
65459;SDS011;52058;49.822;6.754;2022-07-10T02:16:47;2.17;;;1.77;;
65459;SDS011;52058;49.822;6.754;2022-07-10T02:19:12;5.13;;;2.10;;
65459;SDS011;52058;49.822;6.754;2022-07-10T02:21:37;2.80;;;1.90;;
65459;SDS011;52058;49.822;6.754;2022-07-10T02:24:03;2.75;;;1.60;;
65459;SDS011;52058;49.822;6.754;2022-07-10T02:26:28;2.75;;;1.95;;
65459;SDS011;52058;49.822;6.754;2022-07-10T02:28:53;5.93;;;2.30;;
65459;SDS011;52058;49.822;6.754;2022-07-10T02:31:19;3.88;;;2.15;;
65459;SDS011;52058;49.822;6.754;2022-07-10T02:33:44;4.95;;;2.10;;
65459;SDS011;52058;49.822;6.754;2022-07-10T02:36:09;3.88;;;1.85;;
65459;SDS011;52058;49.822;6.754;2022-07-10T02:38:35;2.78;;;1.90;;
65459;SDS011;52058;49.822;6.754;2022-07-10T02:41:00;3.50;;;1.80;;
65459;SDS011;52058;49.822;6.754;2022-07-10T02:43:25;4.88;;;1.95;;
65459;SDS011;52058;49.822;6.754;2022-07-10T02:45:51;5.25;;;1.92;;
65459;SDS011;52058;49.822;6.754;2022-07-10T02:48:16;4.90;;;1.88;;
65459;SDS011;52058;49.822;6.754;2022-07-10T02:50:43;4.97;;;1.70;;
65459;SDS011;52058;49.822;6.754;2022-07-10T02:53:08;4.25;;;1.70;;
65459;SDS011;52058;49.822;6.754;2022-07-10T02:55:34;3.50;;;1.75;;
65459;SDS011;52058;49.822;6.754;2022-07-10T02:57:59;3.10;;;1.92;;
65459;SDS011;52058;49.822;6.754;2022-07-10T03:00:25;4.18;;;1.58;;
65459;SDS011;52058;49.822;6.754;2022-07-10T03:02:51;5.03;;;1.60;;
65459;SDS011;52058;49.822;6.754;2022-07-10T03:05:17;7.57;;;1.50;;
65459;SDS011;52058;49.822;6.754;2022-07-10T03:07:42;3.53;;;1.52;;
65459;SDS011;52058;49.822;6.754;2022-07-10T03:10:08;6.05;;;1.38;;
65459;SDS011;52058;49.822;6.754;2022-07-10T03:12:34;5.57;;;1.40;;
65459;SDS011;52058;49.822;6.754;2022-07-10T03:14:59;3.35;;;1.48;;
65459;SDS011;52058;49.822;6.754;2022-07-10T03:17:25;4.68;;;1.40;;
65459;SDS011;52058;49.822;6.754;2022-07-10T03:19:50;2.83;;;1.20;;
65459;SDS011;52058;49.822;6.754;2022-07-10T03:22:15;2.72;;;1.25;;
65459;SDS011;52058;49.822;6.754;2022-07-10T03:24:41;4.18;;;1.77;;
65459;SDS011;52058;49.822;6.754;2022-07-10T03:27:08;2.88;;;1.30;;
65459;SDS011;52058;49.822;6.754;2022-07-10T03:29:33;3.05;;;1.27;;
65459;SDS011;52058;49.822;6.754;2022-07-10T03:31:58;4.60;;;1.52;;
65459;SDS011;52058;49.822;6.754;2022-07-10T03:34:24;4.40;;;1.40;;
65459;SDS011;52058;49.822;6.754;2022-07-10T03:36:49;3.08;;;1.40;;
65459;SDS011;52058;49.822;6.754;2022-07-10T03:39:14;2.55;;;1.50;;
65459;SDS011;52058;49.822;6.754;2022-07-10T03:41:40;7.00;;;1.77;;
65459;SDS011;52058;49.822;6.754;2022-07-10T03:44:05;4.90;;;1.40;;
65459;SDS011;52058;49.822;6.754;2022-07-10T03:46:30;2.17;;;1.20;;
65459;SDS011;52058;49.822;6.754;2022-07-10T03:48:56;3.47;;;1.55;;
65459;SDS011;52058;49.822;6.754;2022-07-10T03:51:21;3.90;;;1.40;;
65459;SDS011;52058;49.822;6.754;2022-07-10T03:53:46;4.07;;;1.40;;
65459;SDS011;52058;49.822;6.754;2022-07-10T03:56:12;4.55;;;1.40;;
65459;SDS011;52058;49.822;6.754;2022-07-10T03:58:57;7.80;;;1.55;;
65459;SDS011;52058;49.822;6.754;2022-07-10T04:01:22;4.78;;;1.50;;
65459;SDS011;52058;49.822;6.754;2022-07-10T04:03:47;4.63;;;1.42;;
65459;SDS011;52058;49.822;6.754;2022-07-10T04:06:13;3.60;;;1.38;;
65459;SDS011;52058;49.822;6.754;2022-07-10T04:08:38;2.22;;;1.30;;
65459;SDS011;52058;49.822;6.754;2022-07-10T04:11:05;2.10;;;1.20;;
65459;SDS011;52058;49.822;6.754;2022-07-10T04:13:30;2.90;;;1.27;;
65459;SDS011;52058;49.822;6.754;2022-07-10T04:15:56;3.83;;;1.40;;
65459;SDS011;52058;49.822;6.754;2022-07-10T04:18:21;2.65;;;1.45;;
65459;SDS011;52058;49.822;6.754;2022-07-10T04:20:46;2.47;;;1.20;;
65459;SDS011;52058;49.822;6.754;2022-07-10T04:23:12;4.70;;;1.17;;
65459;SDS011;52058;49.822;6.754;2022-07-10T04:25:37;5.47;;;1.63;;
65459;SDS011;52058;49.822;6.754;2022-07-10T04:28:02;4.22;;;1.45;;
65459;SDS011;52058;49.822;6.754;2022-07-10T04:30:28;4.22;;;1.40;;
65459;SDS011;52058;49.822;6.754;2022-07-10T04:32:53;4.75;;;1.60;;
65459;SDS011;52058;49.822;6.754;2022-07-10T04:35:18;3.90;;;1.70;;
65459;SDS011;52058;49.822;6.754;2022-07-10T04:37:43;5.20;;;1.30;;
65459;SDS011;52058;49.822;6.754;2022-07-10T04:40:09;4.53;;;1.33;;
65459;SDS011;52058;49.822;6.754;2022-07-10T04:42:35;4.65;;;1.45;;
65459;SDS011;52058;49.822;6.754;2022-07-10T04:45:00;2.28;;;1.15;;
65459;SDS011;52058;49.822;6.754;2022-07-10T04:47:27;1.80;;;1.20;;
65459;SDS011;52058;49.822;6.754;2022-07-10T04:49:52;3.83;;;1.40;;
65459;SDS011;52058;49.822;6.754;2022-07-10T04:52:17;4.93;;;1.35;;
65459;SDS011;52058;49.822;6.754;2022-07-10T04:54:43;3.80;;;1.40;;
65459;SDS011;52058;49.822;6.754;2022-07-10T04:57:08;1.55;;;1.20;;
65459;SDS011;52058;49.822;6.754;2022-07-10T04:59:33;4.10;;;1.25;;
65459;SDS011;52058;49.822;6.754;2022-07-10T05:01:59;3.03;;;1.10;;
65459;SDS011;52058;49.822;6.754;2022-07-10T05:04:24;2.28;;;1.15;;
65459;SDS011;52058;49.822;6.754;2022-07-10T05:06:49;3.13;;;1.38;;
65459;SDS011;52058;49.822;6.754;2022-07-10T05:09:14;2.60;;;1.27;;
65459;SDS011;52058;49.822;6.754;2022-07-10T05:11:40;3.90;;;1.30;;
65459;SDS011;52058;49.822;6.754;2022-07-10T05:14:05;2.30;;;1.02;;
65459;SDS011;52058;49.822;6.754;2022-07-10T05:16:31;2.53;;;1.10;;
65459;SDS011;52058;49.822;6.754;2022-07-10T05:18:56;3.08;;;1.20;;
65459;SDS011;52058;49.822;6.754;2022-07-10T05:21:22;5.35;;;1.33;;
65459;SDS011;52058;49.822;6.754;2022-07-10T05:23:47;3.20;;;1.63;;
65459;SDS011;52058;49.822;6.754;2022-07-10T05:26:12;2.92;;;1.10;;
65459;SDS011;52058;49.822;6.754;2022-07-10T05:28:38;5.50;;;1.10;;
65459;SDS011;52058;49.822;6.754;2022-07-10T05:31:03;4.70;;;1.05;;
65459;SDS011;52058;49.822;6.754;2022-07-10T05:33:28;2.92;;;0.93;;
65459;SDS011;52058;49.822;6.754;2022-07-10T05:35:54;4.15;;;1.17;;
65459;SDS011;52058;49.822;6.754;2022-07-10T05:38:20;4.63;;;1.45;;
65459;SDS011;52058;49.822;6.754;2022-07-10T05:40:45;3.88;;;1.40;;
65459;SDS011;52058;49.822;6.754;2022-07-10T05:43:11;2.35;;;1.10;;
65459;SDS011;52058;49.822;6.754;2022-07-10T05:45:37;3.33;;;1.13;;
65459;SDS011;52058;49.822;6.754;2022-07-10T05:48:02;2.33;;;0.90;;
65459;SDS011;52058;49.822;6.754;2022-07-10T05:50:28;2.83;;;1.20;;
65459;SDS011;52058;49.822;6.754;2022-07-10T05:52:53;3.00;;;1.10;;
65459;SDS011;52058;49.822;6.754;2022-07-10T05:55:18;3.10;;;1.10;;
65459;SDS011;52058;49.822;6.754;2022-07-10T05:57:44;4.88;;;1.00;;
65459;SDS011;52058;49.822;6.754;2022-07-10T06:00:09;2.80;;;1.00;;
65459;SDS011;52058;49.822;6.754;2022-07-10T06:02:35;3.63;;;1.33;;
65459;SDS011;52058;49.822;6.754;2022-07-10T06:05:00;3.13;;;0.90;;
65459;SDS011;52058;49.822;6.754;2022-07-10T06:07:26;2.47;;;0.90;;
65459;SDS011;52058;49.822;6.754;2022-07-10T06:09:51;3.30;;;1.10;;
65459;SDS011;52058;49.822;6.754;2022-07-10T06:12:17;2.80;;;0.98;;
65459;SDS011;52058;49.822;6.754;2022-07-10T06:14:42;2.63;;;0.95;;
65459;SDS011;52058;49.822;6.754;2022-07-10T06:17:08;3.17;;;1.05;;
65459;SDS011;52058;49.822;6.754;2022-07-10T06:19:33;2.10;;;0.77;;
65459;SDS011;52058;49.822;6.754;2022-07-10T06:21:58;2.85;;;0.82;;
65459;SDS011;52058;49.822;6.754;2022-07-10T06:24:42;3.53;;;1.10;;
65459;SDS011;52058;49.822;6.754;2022-07-10T06:27:08;5.97;;;0.98;;
65459;SDS011;52058;49.822;6.754;2022-07-10T06:29:33;2.45;;;0.90;;
65459;SDS011;52058;49.822;6.754;2022-07-10T06:31:58;3.13;;;0.95;;
65459;SDS011;52058;49.822;6.754;2022-07-10T06:34:24;3.95;;;0.90;;
65459;SDS011;52058;49.822;6.754;2022-07-10T06:36:49;2.22;;;0.88;;
65459;SDS011;52058;49.822;6.754;2022-07-10T06:39:14;4.93;;;1.10;;
65459;SDS011;52058;49.822;6.754;2022-07-10T06:41:39;2.53;;;1.35;;
65459;SDS011;52058;49.822;6.754;2022-07-10T06:44:05;2.30;;;1.00;;
65459;SDS011;52058;49.822;6.754;2022-07-10T06:46:30;3.20;;;1.05;;
65459;SDS011;52058;49.822;6.754;2022-07-10T06:48:56;3.63;;;1.00;;
65459;SDS011;52058;49.822;6.754;2022-07-10T06:51:22;2.00;;;0.90;;
65459;SDS011;52058;49.822;6.754;2022-07-10T06:53:48;3.65;;;1.20;;
65459;SDS011;52058;49.822;6.754;2022-07-10T06:56:13;2.40;;;1.05;;
65459;SDS011;52058;49.822;6.754;2022-07-10T06:58:40;2.78;;;0.88;;
65459;SDS011;52058;49.822;6.754;2022-07-10T07:01:06;4.95;;;1.10;;
65459;SDS011;52058;49.822;6.754;2022-07-10T07:03:31;3.15;;;0.90;;
65459;SDS011;52058;49.822;6.754;2022-07-10T07:05:56;2.28;;;0.85;;
65459;SDS011;52058;49.822;6.754;2022-07-10T07:08:22;2.85;;;1.00;;
65459;SDS011;52058;49.822;6.754;2022-07-10T07:10:47;3.58;;;1.02;;
65459;SDS011;52058;49.822;6.754;2022-07-10T07:13:12;5.00;;;0.95;;
65459;SDS011;52058;49.822;6.754;2022-07-10T07:15:38;3.45;;;0.90;;
65459;SDS011;52058;49.822;6.754;2022-07-10T07:18:07;4.70;;;1.10;;
65459;SDS011;52058;49.822;6.754;2022-07-10T07:20:33;2.97;;;0.70;;
65459;SDS011;52058;49.822;6.754;2022-07-10T07:23:18;3.60;;;0.75;;
65459;SDS011;52058;49.822;6.754;2022-07-10T07:25:44;2.58;;;0.90;;
65459;SDS011;52058;49.822;6.754;2022-07-10T07:28:12;2.72;;;1.00;;
65459;SDS011;52058;49.822;6.754;2022-07-10T07:30:40;2.75;;;0.88;;
65459;SDS011;52058;49.822;6.754;2022-07-10T07:33:05;4.90;;;2.42;;
65459;SDS011;52058;49.822;6.754;2022-07-10T07:35:31;1.95;;;0.93;;
65459;SDS011;52058;49.822;6.754;2022-07-10T07:37:56;3.08;;;0.95;;
65459;SDS011;52058;49.822;6.754;2022-07-10T07:40:22;1.13;;;0.70;;
65459;SDS011;52058;49.822;6.754;2022-07-10T07:42:51;6.00;;;1.20;;
65459;SDS011;52058;49.822;6.754;2022-07-10T07:47:46;2.08;;;0.98;;
65459;SDS011;52058;49.822;6.754;2022-07-10T07:50:22;3.15;;;1.08;;
65459;SDS011;52058;49.822;6.754;2022-07-10T07:52:48;2.05;;;0.90;;
65459;SDS011;52058;49.822;6.754;2022-07-10T07:55:15;2.05;;;1.10;;
65459;SDS011;52058;49.822;6.754;2022-07-10T07:57:42;1.83;;;0.95;;
65459;SDS011;52058;49.822;6.754;2022-07-10T08:00:08;2.33;;;0.90;;
65459;SDS011;52058;49.822;6.754;2022-07-10T08:02:35;2.33;;;0.90;;
65459;SDS011;52058;49.822;6.754;2022-07-10T08:05:00;3.00;;;1.00;;
65459;SDS011;52058;49.822;6.754;2022-07-10T08:07:33;3.20;;;1.10;;
65459;SDS011;52058;49.822;6.754;2022-07-10T08:09:59;2.25;;;1.00;;
65459;SDS011;52058;49.822;6.754;2022-07-10T08:12:24;3.50;;;1.10;;
65459;SDS011;52058;49.822;6.754;2022-07-10T08:14:49;3.00;;;1.60;;
65459;SDS011;52058;49.822;6.754;2022-07-10T08:17:15;2.03;;;1.20;;
65459;SDS011;52058;49.822;6.754;2022-07-10T08:19:40;2.20;;;1.00;;
65459;SDS011;52058;49.822;6.754;2022-07-10T08:22:05;3.10;;;1.30;;
65459;SDS011;52058;49.822;6.754;2022-07-10T08:24:33;2.17;;;1.17;;
65459;SDS011;52058;49.822;6.754;2022-07-10T08:26:59;2.30;;;1.40;;
65459;SDS011;52058;49.822;6.754;2022-07-10T08:29:24;3.60;;;1.20;;
65459;SDS011;52058;49.822;6.754;2022-07-10T08:31:50;3.45;;;1.60;;
65459;SDS011;52058;49.822;6.754;2022-07-10T08:34:15;3.63;;;1.40;;
65459;SDS011;52058;49.822;6.754;2022-07-10T08:36:40;3.37;;;1.30;;
65459;SDS011;52058;49.822;6.754;2022-07-10T08:39:06;4.03;;;1.48;;
65459;SDS011;52058;49.822;6.754;2022-07-10T08:41:31;3.15;;;1.13;;
65459;SDS011;52058;49.822;6.754;2022-07-10T08:43:59;4.75;;;1.52;;
65459;SDS011;52058;49.822;6.754;2022-07-10T08:46:25;3.22;;;1.20;;
65459;SDS011;52058;49.822;6.754;2022-07-10T08:48:51;3.67;;;1.50;;
65459;SDS011;52058;49.822;6.754;2022-07-10T08:51:38;3.65;;;1.35;;
65459;SDS011;52058;49.822;6.754;2022-07-10T08:54:27;2.35;;;1.00;;
65459;SDS011;52058;49.822;6.754;2022-07-10T08:56:55;2.70;;;1.05;;
65459;SDS011;52058;49.822;6.754;2022-07-10T08:59:21;2.83;;;1.00;;
65459;SDS011;52058;49.822;6.754;2022-07-10T09:01:48;3.55;;;1.10;;
65459;SDS011;52058;49.822;6.754;2022-07-10T09:04:17;4.47;;;1.20;;
65459;SDS011;52058;49.822;6.754;2022-07-10T09:06:44;3.03;;;1.13;;
65459;SDS011;52058;49.822;6.754;2022-07-10T09:09:09;4.53;;;2.38;;
65459;SDS011;52058;49.822;6.754;2022-07-10T09:11:36;2.55;;;1.27;;
65459;SDS011;52058;49.822;6.754;2022-07-10T09:14:05;1.80;;;1.13;;
65459;SDS011;52058;49.822;6.754;2022-07-10T09:16:37;2.20;;;1.08;;
65459;SDS011;52058;49.822;6.754;2022-07-10T09:19:14;2.83;;;1.25;;
65459;SDS011;52058;49.822;6.754;2022-07-10T09:21:45;5.85;;;1.30;;
65459;SDS011;52058;49.822;6.754;2022-07-10T09:24:12;2.20;;;1.17;;
65459;SDS011;52058;49.822;6.754;2022-07-10T09:26:38;2.97;;;1.00;;
65459;SDS011;52058;49.822;6.754;2022-07-10T09:29:05;2.65;;;1.10;;
65459;SDS011;52058;49.822;6.754;2022-07-10T09:31:47;3.20;;;1.05;;
65459;SDS011;52058;49.822;6.754;2022-07-10T09:34:16;2.30;;;1.17;;
65459;SDS011;52058;49.822;6.754;2022-07-10T09:36:43;3.45;;;1.20;;
65459;SDS011;52058;49.822;6.754;2022-07-10T09:39:08;4.60;;;0.95;;
65459;SDS011;52058;49.822;6.754;2022-07-10T09:41:33;2.67;;;1.10;;
65459;SDS011;52058;49.822;6.754;2022-07-10T09:44:00;2.30;;;1.30;;
65459;SDS011;52058;49.822;6.754;2022-07-10T09:46:31;3.03;;;1.23;;
65459;SDS011;52058;49.822;6.754;2022-07-10T09:49:01;3.17;;;1.13;;
65459;SDS011;52058;49.822;6.754;2022-07-10T09:51:31;2.33;;;1.20;;
65459;SDS011;52058;49.822;6.754;2022-07-10T09:54:02;1.95;;;1.13;;
65459;SDS011;52058;49.822;6.754;2022-07-10T09:56:31;2.28;;;1.15;;
65459;SDS011;52058;49.822;6.754;2022-07-10T09:59:06;2.85;;;1.42;;
65459;SDS011;52058;49.822;6.754;2022-07-10T10:01:35;2.42;;;1.30;;
65459;SDS011;52058;49.822;6.754;2022-07-10T10:04:00;4.25;;;1.10;;
65459;SDS011;52058;49.822;6.754;2022-07-10T10:06:28;2.28;;;1.00;;
65459;SDS011;52058;49.822;6.754;2022-07-10T10:11:30;2.83;;;1.15;;
65459;SDS011;52058;49.822;6.754;2022-07-10T10:13:57;2.15;;;1.20;;
65459;SDS011;52058;49.822;6.754;2022-07-10T10:16:23;2.05;;;1.25;;
65459;SDS011;52058;49.822;6.754;2022-07-10T10:18:52;4.18;;;1.60;;
65459;SDS011;52058;49.822;6.754;2022-07-10T10:21:37;3.53;;;1.55;;
65459;SDS011;52058;49.822;6.754;2022-07-10T10:24:03;2.55;;;1.50;;
65459;SDS011;52058;49.822;6.754;2022-07-10T10:26:29;2.95;;;1.20;;
65459;SDS011;52058;49.822;6.754;2022-07-10T10:28:56;2.42;;;1.17;;
65459;SDS011;52058;49.822;6.754;2022-07-10T10:31:23;3.28;;;1.40;;
65459;SDS011;52058;49.822;6.754;2022-07-10T10:33:51;2.17;;;1.50;;
65459;SDS011;52058;49.822;6.754;2022-07-10T10:39:13;1.67;;;1.42;;
65459;SDS011;52058;49.822;6.754;2022-07-10T10:49:22;2.83;;;1.48;;
65459;SDS011;52058;49.822;6.754;2022-07-10T10:59:51;2.17;;;1.23;;
65459;SDS011;52058;49.822;6.754;2022-07-10T11:02:30;3.67;;;1.20;;
65459;SDS011;52058;49.822;6.754;2022-07-10T11:07:56;2.55;;;1.23;;
65459;SDS011;52058;49.822;6.754;2022-07-10T11:10:31;3.05;;;1.38;;
65459;SDS011;52058;49.822;6.754;2022-07-10T11:15:34;2.50;;;1.15;;
65459;SDS011;52058;49.822;6.754;2022-07-10T11:18:05;1.98;;;1.20;;
65459;SDS011;52058;49.822;6.754;2022-07-10T11:20:32;2.25;;;1.20;;
65459;SDS011;52058;49.822;6.754;2022-07-10T11:23:16;1.73;;;1.10;;
65459;SDS011;52058;49.822;6.754;2022-07-10T11:28:44;3.10;;;1.30;;
65459;SDS011;52058;49.822;6.754;2022-07-10T11:31:14;2.47;;;1.00;;
65459;SDS011;52058;49.822;6.754;2022-07-10T11:33:40;1.33;;;0.95;;
65459;SDS011;52058;49.822;6.754;2022-07-10T11:36:13;3.17;;;1.17;;
65459;SDS011;52058;49.822;6.754;2022-07-10T11:38:41;2.13;;;1.20;;
65459;SDS011;52058;49.822;6.754;2022-07-10T11:41:19;3.78;;;1.10;;
65459;SDS011;52058;49.822;6.754;2022-07-10T11:43:55;1.20;;;1.10;;
65459;SDS011;52058;49.822;6.754;2022-07-10T11:46:25;1.00;;;0.90;;
65459;SDS011;52058;49.822;6.754;2022-07-10T11:48:55;1.92;;;1.20;;
65459;SDS011;52058;49.822;6.754;2022-07-10T11:53:57;2.00;;;1.10;;
65459;SDS011;52058;49.822;6.754;2022-07-10T11:56:23;2.25;;;1.27;;
65459;SDS011;52058;49.822;6.754;2022-07-10T11:58:53;1.85;;;1.00;;
65459;SDS011;52058;49.822;6.754;2022-07-10T12:01:19;1.70;;;1.20;;
65459;SDS011;52058;49.822;6.754;2022-07-10T12:03:44;1.38;;;1.08;;
65459;SDS011;52058;49.822;6.754;2022-07-10T12:06:10;3.10;;;1.45;;
65459;SDS011;52058;49.822;6.754;2022-07-10T12:08:47;2.45;;;1.20;;
65459;SDS011;52058;49.822;6.754;2022-07-10T12:11:13;1.10;;;1.00;;
65459;SDS011;52058;49.822;6.754;2022-07-10T12:13:40;2.03;;;1.20;;
65459;SDS011;52058;49.822;6.754;2022-07-10T12:16:05;2.40;;;1.10;;
65459;SDS011;52058;49.822;6.754;2022-07-10T12:18:30;1.52;;;1.13;;
65459;SDS011;52058;49.822;6.754;2022-07-10T12:20:58;2.47;;;1.13;;
65459;SDS011;52058;49.822;6.754;2022-07-10T12:23:24;1.38;;;1.10;;
65459;SDS011;52058;49.822;6.754;2022-07-10T12:25:50;2.15;;;1.10;;
65459;SDS011;52058;49.822;6.754;2022-07-10T12:28:15;1.30;;;1.10;;
65459;SDS011;52058;49.822;6.754;2022-07-10T12:30:45;2.58;;;1.20;;
65459;SDS011;52058;49.822;6.754;2022-07-10T12:33:12;1.95;;;1.13;;
65459;SDS011;52058;49.822;6.754;2022-07-10T12:38:20;1.95;;;1.10;;
65459;SDS011;52058;49.822;6.754;2022-07-10T12:40:47;1.20;;;1.10;;
65459;SDS011;52058;49.822;6.754;2022-07-10T12:43:12;1.35;;;0.98;;
65459;SDS011;52058;49.822;6.754;2022-07-10T12:48:44;1.17;;;0.90;;
65459;SDS011;52058;49.822;6.754;2022-07-10T12:51:42;1.33;;;1.00;;
65459;SDS011;52058;49.822;6.754;2022-07-10T12:54:29;2.95;;;1.00;;
65459;SDS011;52058;49.822;6.754;2022-07-10T12:56:57;1.20;;;1.10;;
65459;SDS011;52058;49.822;6.754;2022-07-10T12:59:23;3.47;;;1.33;;
65459;SDS011;52058;49.822;6.754;2022-07-10T13:01:49;2.05;;;1.30;;
65459;SDS011;52058;49.822;6.754;2022-07-10T13:04:14;1.20;;;1.10;;
65459;SDS011;52058;49.822;6.754;2022-07-10T13:06:47;1.25;;;1.15;;
65459;SDS011;52058;49.822;6.754;2022-07-10T13:09:19;1.38;;;1.20;;
65459;SDS011;52058;49.822;6.754;2022-07-10T13:11:49;1.20;;;1.10;;
65459;SDS011;52058;49.822;6.754;2022-07-10T13:14:15;2.30;;;1.40;;
65459;SDS011;52058;49.822;6.754;2022-07-10T13:16:41;2.60;;;1.42;;
65459;SDS011;52058;49.822;6.754;2022-07-10T13:19:06;2.50;;;1.42;;
65459;SDS011;52058;49.822;6.754;2022-07-10T13:21:32;1.75;;;1.20;;
65459;SDS011;52058;49.822;6.754;2022-07-10T13:23:57;2.28;;;1.35;;
65459;SDS011;52058;49.822;6.754;2022-07-10T13:26:23;3.58;;;1.40;;
65459;SDS011;52058;49.822;6.754;2022-07-10T13:28:48;1.10;;;1.00;;
65459;SDS011;52058;49.822;6.754;2022-07-10T13:31:13;1.50;;;1.20;;
65459;SDS011;52058;49.822;6.754;2022-07-10T13:33:39;3.75;;;1.20;;
65459;SDS011;52058;49.822;6.754;2022-07-10T13:36:04;3.03;;;1.20;;
65459;SDS011;52058;49.822;6.754;2022-07-10T13:38:30;1.98;;;1.38;;
65459;SDS011;52058;49.822;6.754;2022-07-10T13:40:56;1.83;;;1.25;;
65459;SDS011;52058;49.822;6.754;2022-07-10T13:43:22;3.92;;;1.50;;
65459;SDS011;52058;49.822;6.754;2022-07-10T13:45:53;1.40;;;1.30;;
65459;SDS011;52058;49.822;6.754;2022-07-10T13:48:21;1.70;;;1.17;;
65459;SDS011;52058;49.822;6.754;2022-07-10T13:50:46;2.35;;;1.33;;
65459;SDS011;52058;49.822;6.754;2022-07-10T13:53:12;2.25;;;1.23;;
65459;SDS011;52058;49.822;6.754;2022-07-10T13:55:38;1.48;;;1.30;;
65459;SDS011;52058;49.822;6.754;2022-07-10T13:58:03;1.48;;;1.25;;
65459;SDS011;52058;49.822;6.754;2022-07-10T14:00:29;2.20;;;1.10;;
65459;SDS011;52058;49.822;6.754;2022-07-10T14:02:54;1.55;;;1.27;;
65459;SDS011;52058;49.822;6.754;2022-07-10T14:05:23;1.08;;;1.02;;
65459;SDS011;52058;49.822;6.754;2022-07-10T14:07:49;1.92;;;1.02;;
65459;SDS011;52058;49.822;6.754;2022-07-10T14:10:14;1.73;;;1.23;;
65459;SDS011;52058;49.822;6.754;2022-07-10T14:12:40;1.20;;;1.10;;
65459;SDS011;52058;49.822;6.754;2022-07-10T14:15:06;1.30;;;1.20;;
65459;SDS011;52058;49.822;6.754;2022-07-10T14:17:32;1.85;;;1.30;;
65459;SDS011;52058;49.822;6.754;2022-07-10T14:19:57;1.30;;;1.20;;
65459;SDS011;52058;49.822;6.754;2022-07-10T14:22:22;3.10;;;1.60;;
65459;SDS011;52058;49.822;6.754;2022-07-10T14:24:49;1.35;;;1.10;;
65459;SDS011;52058;49.822;6.754;2022-07-10T14:27:14;2.67;;;1.35;;
65459;SDS011;52058;49.822;6.754;2022-07-10T14:29:40;2.58;;;1.60;;
65459;SDS011;52058;49.822;6.754;2022-07-10T14:32:05;1.10;;;1.00;;
65459;SDS011;52058;49.822;6.754;2022-07-10T14:34:30;1.60;;;1.20;;
65459;SDS011;52058;49.822;6.754;2022-07-10T14:36:56;1.23;;;1.13;;
65459;SDS011;52058;49.822;6.754;2022-07-10T14:39:21;2.08;;;1.10;;
65459;SDS011;52058;49.822;6.754;2022-07-10T14:41:46;2.55;;;1.15;;
65459;SDS011;52058;49.822;6.754;2022-07-10T14:44:12;1.38;;;1.27;;
65459;SDS011;52058;49.822;6.754;2022-07-10T14:46:37;2.30;;;1.30;;
65459;SDS011;52058;49.822;6.754;2022-07-10T14:49:03;1.40;;;1.30;;
65459;SDS011;52058;49.822;6.754;2022-07-10T14:51:29;1.17;;;1.00;;
65459;SDS011;52058;49.822;6.754;2022-07-10T14:53:54;2.60;;;1.02;;
65459;SDS011;52058;49.822;6.754;2022-07-10T14:56:21;1.48;;;1.00;;
65459;SDS011;52058;49.822;6.754;2022-07-10T14:58:47;2.53;;;1.00;;
65459;SDS011;52058;49.822;6.754;2022-07-10T15:01:13;2.13;;;1.00;;
65459;SDS011;52058;49.822;6.754;2022-07-10T15:03:39;1.52;;;0.93;;
65459;SDS011;52058;49.822;6.754;2022-07-10T15:06:05;3.13;;;1.00;;
65459;SDS011;52058;49.822;6.754;2022-07-10T15:08:30;2.40;;;1.38;;
65459;SDS011;52058;49.822;6.754;2022-07-10T15:10:56;2.22;;;1.10;;
65459;SDS011;52058;49.822;6.754;2022-07-10T15:13:23;1.67;;;0.80;;
65459;SDS011;52058;49.822;6.754;2022-07-10T15:15:49;1.67;;;1.10;;
65459;SDS011;52058;49.822;6.754;2022-07-10T15:18:16;2.25;;;1.20;;
65459;SDS011;52058;49.822;6.754;2022-07-10T15:20:41;1.17;;;0.80;;
65459;SDS011;52058;49.822;6.754;2022-07-10T15:23:06;1.40;;;0.90;;
65459;SDS011;52058;49.822;6.754;2022-07-10T15:25:32;1.45;;;0.90;;